McCall, Idaho
Current Conditions -  °F | °C
As of 11:51 PM on Wednesday 22 Oct 2014 (Local Time) from KMYL Reporting Station
Light Rain Light Rain  
Wind Chill: 41°   Ceiling: 4300
Heat Index: 47°   Visibility: 10mi
Dew Point: 37°   Wind: 13mph
Humidity: 68%   Direction: 180°S
Pressure: 30.04"   Gusts: 23mph
Location:  44.91°N, 116.1°W
Report Text: KMYL 230551Z AUTO 18011G20KT 10SM -RA OVC043 08/03 A3004 RMK AO2 PK WND 15026/0511 RAB09 SLP168 P0000 60000 T00830028 10094 20078 53008
Loading
Personal Weather Stations






























Interactive Weather Map New forecast layout! Learn more

10-Day Weather Forecast

Advertisements
Track Severe Weather on mobile